sensor_id;sensor_type;location;lat;lon;timestamp;P1;durP1;ratioP1;P2;durP2;ratioP2
15577;SDS011;17667;45.598;5.214;2023-03-23T08:06:51;3.80;;;2.13;;
15577;SDS011;17667;45.598;5.214;2023-03-23T08:09:50;2.77;;;2.37;;
15577;SDS011;17667;45.598;5.214;2023-03-23T08:13:06;2.63;;;2.13;;
15577;SDS011;17667;45.598;5.214;2023-03-23T08:16:12;3.60;;;2.20;;
15577;SDS011;17667;45.598;5.214;2023-03-23T08:19:23;3.67;;;2.17;;
15577;SDS011;17667;45.598;5.214;2023-03-23T08:22:27;5.50;;;2.73;;
15577;SDS011;17667;45.598;5.214;2023-03-23T08:25:35;3.00;;;2.53;;
15577;SDS011;17667;45.598;5.214;2023-03-23T08:28:44;3.07;;;2.40;;
15577;SDS011;17667;45.598;5.214;2023-03-23T08:31:58;3.20;;;2.50;;
15577;SDS011;17667;45.598;5.214;2023-03-23T08:34:47;3.10;;;2.80;;
15577;SDS011;17667;45.598;5.214;2023-03-23T08:37:50;4.50;;;2.70;;
15577;SDS011;17667;45.598;5.214;2023-03-23T08:41:05;2.47;;;2.00;;
15577;SDS011;17667;45.598;5.214;2023-03-23T08:44:12;3.10;;;2.30;;
15577;SDS011;17667;45.598;5.214;2023-03-23T08:47:22;3.47;;;2.67;;
15577;SDS011;17667;45.598;5.214;2023-03-23T08:50:29;3.03;;;2.73;;
15577;SDS011;17667;45.598;5.214;2023-03-23T08:53:20;3.40;;;2.90;;
15577;SDS011;17667;45.598;5.214;2023-03-23T08:56:07;4.30;;;3.30;;
15577;SDS011;17667;45.598;5.214;2023-03-23T08:59:13;4.07;;;3.13;;
15577;SDS011;17667;45.598;5.214;2023-03-23T09:02:18;4.00;;;3.20;;
15577;SDS011;17667;45.598;5.214;2023-03-23T09:05:11;6.17;;;4.00;;
15577;SDS011;17667;45.598;5.214;2023-03-23T09:08:22;5.60;;;3.87;;
15577;SDS011;17667;45.598;5.214;2023-03-23T09:11:09;4.60;;;4.00;;
15577;SDS011;17667;45.598;5.214;2023-03-23T09:13:55;5.07;;;4.53;;
15577;SDS011;17667;45.598;5.214;2023-03-23T09:16:42;5.60;;;4.60;;
15577;SDS011;17667;45.598;5.214;2023-03-23T09:19:29;6.43;;;4.70;;
15577;SDS011;17667;45.598;5.214;2023-03-23T09:22:17;6.60;;;4.97;;
15577;SDS011;17667;45.598;5.214;2023-03-23T09:25:10;6.13;;;4.93;;
15577;SDS011;17667;45.598;5.214;2023-03-23T09:27:58;6.40;;;5.80;;
15577;SDS011;17667;45.598;5.214;2023-03-23T09:30:45;5.20;;;4.70;;
15577;SDS011;17667;45.598;5.214;2023-03-23T09:33:32;7.63;;;5.23;;
15577;SDS011;17667;45.598;5.214;2023-03-23T09:36:18;6.47;;;4.93;;
15577;SDS011;17667;45.598;5.214;2023-03-23T09:39:05;7.40;;;5.73;;
15577;SDS011;17667;45.598;5.214;2023-03-23T09:42:02;6.03;;;5.43;;
15577;SDS011;17667;45.598;5.214;2023-03-23T09:45:02;5.33;;;4.83;;
15577;SDS011;17667;45.598;5.214;2023-03-23T09:48:02;5.17;;;4.63;;
15577;SDS011;17667;45.598;5.214;2023-03-23T09:51:20;4.87;;;4.37;;
15577;SDS011;17667;45.598;5.214;2023-03-23T09:54:18;5.03;;;4.43;;
15577;SDS011;17667;45.598;5.214;2023-03-23T09:57:12;4.73;;;4.30;;
15577;SDS011;17667;45.598;5.214;2023-03-23T10:00:03;4.00;;;3.63;;
15577;SDS011;17667;45.598;5.214;2023-03-23T10:03:00;4.43;;;4.03;;
15577;SDS011;17667;45.598;5.214;2023-03-23T10:05:52;6.13;;;5.13;;
15577;SDS011;17667;45.598;5.214;2023-03-23T10:08:43;5.70;;;4.93;;
15577;SDS011;17667;45.598;5.214;2023-03-23T10:11:33;7.10;;;6.40;;
15577;SDS011;17667;45.598;5.214;2023-03-23T10:14:31;7.83;;;6.70;;
15577;SDS011;17667;45.598;5.214;2023-03-23T10:17:26;7.10;;;6.37;;
15577;SDS011;17667;45.598;5.214;2023-03-23T10:20:23;7.20;;;6.50;;
15577;SDS011;17667;45.598;5.214;2023-03-23T10:23:24;8.70;;;7.90;;
15577;SDS011;17667;45.598;5.214;2023-03-23T10:26:28;9.50;;;8.17;;
15577;SDS011;17667;45.598;5.214;2023-03-23T10:29:23;9.33;;;8.33;;
15577;SDS011;17667;45.598;5.214;2023-03-23T10:32:16;13.97;;;10.20;;
15577;SDS011;17667;45.598;5.214;2023-03-23T10:35:06;10.83;;;9.47;;
15577;SDS011;17667;45.598;5.214;2023-03-23T10:37:58;10.20;;;9.20;;
15577;SDS011;17667;45.598;5.214;2023-03-23T10:40:48;13.47;;;11.63;;
15577;SDS011;17667;45.598;5.214;2023-03-23T10:43:38;14.07;;;12.60;;
15577;SDS011;17667;45.598;5.214;2023-03-23T10:46:27;11.87;;;10.67;;
15577;SDS011;17667;45.598;5.214;2023-03-23T10:49:22;12.57;;;11.27;;
15577;SDS011;17667;45.598;5.214;2023-03-23T10:52:13;11.83;;;10.63;;
15577;SDS011;17667;45.598;5.214;2023-03-23T10:55:12;14.23;;;11.40;;
15577;SDS011;17667;45.598;5.214;2023-03-23T10:58:00;12.77;;;11.47;;
15577;SDS011;17667;45.598;5.214;2023-03-23T11:00:48;12.63;;;11.07;;
15577;SDS011;17667;45.598;5.214;2023-03-23T11:03:38;11.20;;;9.83;;
15577;SDS011;17667;45.598;5.214;2023-03-23T11:06:32;10.07;;;9.07;;
15577;SDS011;17667;45.598;5.214;2023-03-23T11:09:32;9.40;;;8.43;;
15577;SDS011;17667;45.598;5.214;2023-03-23T11:12:20;9.73;;;8.83;;
15577;SDS011;17667;45.598;5.214;2023-03-23T11:15:22;8.57;;;7.87;;
15577;SDS011;17667;45.598;5.214;2023-03-23T11:18:26;8.93;;;8.13;;
15577;SDS011;17667;45.598;5.214;2023-03-23T11:21:20;8.00;;;7.30;;
15577;SDS011;17667;45.598;5.214;2023-03-23T11:24:10;9.10;;;8.30;;
15577;SDS011;17667;45.598;5.214;2023-03-23T11:26:57;8.47;;;7.77;;
15577;SDS011;17667;45.598;5.214;2023-03-23T11:29:50;8.80;;;7.87;;
15577;SDS011;17667;45.598;5.214;2023-03-23T11:32:42;8.60;;;7.80;;
15577;SDS011;17667;45.598;5.214;2023-03-23T11:35:29;7.70;;;7.00;;
15577;SDS011;17667;45.598;5.214;2023-03-23T11:38:17;9.30;;;8.50;;
15577;SDS011;17667;45.598;5.214;2023-03-23T11:41:10;9.27;;;8.37;;
15577;SDS011;17667;45.598;5.214;2023-03-23T11:43:57;10.07;;;9.17;;
15577;SDS011;17667;45.598;5.214;2023-03-23T11:46:57;9.57;;;8.60;;
15577;SDS011;17667;45.598;5.214;2023-03-23T11:49:50;10.10;;;9.20;;
15577;SDS011;17667;45.598;5.214;2023-03-23T11:52:42;9.30;;;8.47;;
15577;SDS011;17667;45.598;5.214;2023-03-23T11:55:34;8.80;;;8.03;;
15577;SDS011;17667;45.598;5.214;2023-03-23T11:58:41;9.70;;;8.80;;
15577;SDS011;17667;45.598;5.214;2023-03-23T12:01:31;9.37;;;8.43;;
15577;SDS011;17667;45.598;5.214;2023-03-23T12:07:55;10.87;;;9.77;;
15577;SDS011;17667;45.598;5.214;2023-03-23T12:10:49;10.63;;;9.50;;
15577;SDS011;17667;45.598;5.214;2023-03-23T12:13:55;9.60;;;8.70;;
15577;SDS011;17667;45.598;5.214;2023-03-23T12:16:52;10.07;;;9.07;;
15577;SDS011;17667;45.598;5.214;2023-03-23T12:19:48;9.83;;;8.83;;
15577;SDS011;17667;45.598;5.214;2023-03-23T12:22:46;9.50;;;8.57;;
15577;SDS011;17667;45.598;5.214;2023-03-23T12:25:51;9.23;;;8.20;;
15577;SDS011;17667;45.598;5.214;2023-03-23T12:28:48;11.13;;;9.73;;
15577;SDS011;17667;45.598;5.214;2023-03-23T12:31:57;12.63;;;10.77;;
15577;SDS011;17667;45.598;5.214;2023-03-23T12:34:54;11.33;;;10.23;;
15577;SDS011;17667;45.598;5.214;2023-03-23T12:37:51;10.13;;;9.13;;
15577;SDS011;17667;45.598;5.214;2023-03-23T12:40:59;10.23;;;9.23;;
15577;SDS011;17667;45.598;5.214;2023-03-23T12:43:57;10.60;;;9.50;;
15577;SDS011;17667;45.598;5.214;2023-03-23T12:46:53;12.60;;;11.30;;
15577;SDS011;17667;45.598;5.214;2023-03-23T12:49:58;12.80;;;11.50;;
15577;SDS011;17667;45.598;5.214;2023-03-23T12:52:49;12.10;;;11.00;;
15577;SDS011;17667;45.598;5.214;2023-03-23T12:55:44;12.50;;;11.20;;
15577;SDS011;17667;45.598;5.214;2023-03-23T12:58:34;11.93;;;10.73;;
15577;SDS011;17667;45.598;5.214;2023-03-23T13:01:26;13.43;;;12.10;;
15577;SDS011;17667;45.598;5.214;2023-03-23T13:04:20;10.57;;;9.57;;
15577;SDS011;17667;45.598;5.214;2023-03-23T13:07:10;13.20;;;11.20;;
15577;SDS011;17667;45.598;5.214;2023-03-23T13:10:03;12.30;;;11.10;;
15577;SDS011;17667;45.598;5.214;2023-03-23T13:12:53;13.27;;;11.97;;
15577;SDS011;17667;45.598;5.214;2023-03-23T13:15:43;14.00;;;12.60;;
15577;SDS011;17667;45.598;5.214;2023-03-23T13:18:38;12.70;;;10.97;;
15577;SDS011;17667;45.598;5.214;2023-03-23T13:21:32;12.27;;;10.97;;
15577;SDS011;17667;45.598;5.214;2023-03-23T13:24:24;12.77;;;11.43;;
15577;SDS011;17667;45.598;5.214;2023-03-23T13:27:13;12.67;;;10.80;;
15577;SDS011;17667;45.598;5.214;2023-03-23T13:30:00;12.27;;;10.67;;
15577;SDS011;17667;45.598;5.214;2023-03-23T13:32:48;11.57;;;10.40;;
15577;SDS011;17667;45.598;5.214;2023-03-23T13:35:35;12.50;;;11.20;;
15577;SDS011;17667;45.598;5.214;2023-03-23T13:38:26;12.40;;;11.10;;
15577;SDS011;17667;45.598;5.214;2023-03-23T13:41:14;13.43;;;11.30;;
15577;SDS011;17667;45.598;5.214;2023-03-23T13:44:15;11.73;;;10.53;;
15577;SDS011;17667;45.598;5.214;2023-03-23T13:47:06;12.90;;;11.60;;
15577;SDS011;17667;45.598;5.214;2023-03-23T13:50:03;12.27;;;11.07;;
15577;SDS011;17667;45.598;5.214;2023-03-23T13:52:58;11.83;;;10.60;;
15577;SDS011;17667;45.598;5.214;2023-03-23T13:55:48;11.37;;;10.03;;
15577;SDS011;17667;45.598;5.214;2023-03-23T13:58:44;10.17;;;9.17;;
15577;SDS011;17667;45.598;5.214;2023-03-23T14:01:33;12.67;;;10.97;;
15577;SDS011;17667;45.598;5.214;2023-03-23T14:04:22;10.23;;;9.20;;
15577;SDS011;17667;45.598;5.214;2023-03-23T14:07:16;11.20;;;10.10;;
15577;SDS011;17667;45.598;5.214;2023-03-23T14:10:05;12.10;;;10.80;;
15577;SDS011;17667;45.598;5.214;2023-03-23T14:12:54;11.90;;;10.00;;
15577;SDS011;17667;45.598;5.214;2023-03-23T14:15:42;11.57;;;10.37;;
15577;SDS011;17667;45.598;5.214;2023-03-23T14:18:31;10.53;;;9.57;;
15577;SDS011;17667;45.598;5.214;2023-03-23T14:21:22;10.43;;;9.43;;
15577;SDS011;17667;45.598;5.214;2023-03-23T14:24:19;10.93;;;9.67;;
15577;SDS011;17667;45.598;5.214;2023-03-23T14:27:09;10.23;;;9.23;;
15577;SDS011;17667;45.598;5.214;2023-03-23T14:29:59;10.70;;;9.60;;
15577;SDS011;17667;45.598;5.214;2023-03-23T14:32:48;10.63;;;9.53;;
15577;SDS011;17667;45.598;5.214;2023-03-23T14:35:37;8.97;;;8.07;;
15577;SDS011;17667;45.598;5.214;2023-03-23T14:38:27;9.43;;;8.53;;
15577;SDS011;17667;45.598;5.214;2023-03-23T14:41:16;10.67;;;9.57;;
15577;SDS011;17667;45.598;5.214;2023-03-23T14:44:03;8.53;;;7.67;;
15577;SDS011;17667;45.598;5.214;2023-03-23T14:46:54;9.73;;;8.40;;
15577;SDS011;17667;45.598;5.214;2023-03-23T14:49:42;9.90;;;8.90;;
15577;SDS011;17667;45.598;5.214;2023-03-23T14:52:33;10.77;;;9.30;;
15577;SDS011;17667;45.598;5.214;2023-03-23T14:55:21;10.07;;;9.07;;
15577;SDS011;17667;45.598;5.214;2023-03-23T14:58:13;8.73;;;7.83;;
15577;SDS011;17667;45.598;5.214;2023-03-23T15:01:01;7.73;;;6.87;;
15577;SDS011;17667;45.598;5.214;2023-03-23T15:03:54;8.63;;;7.83;;
15577;SDS011;17667;45.598;5.214;2023-03-23T15:06:43;9.80;;;8.80;;
15577;SDS011;17667;45.598;5.214;2023-03-23T15:09:32;10.10;;;8.57;;
15577;SDS011;17667;45.598;5.214;2023-03-23T15:12:21;9.53;;;7.90;;
15577;SDS011;17667;45.598;5.214;2023-03-23T15:15:16;8.47;;;7.67;;
15577;SDS011;17667;45.598;5.214;2023-03-23T15:18:14;8.93;;;8.03;;
15577;SDS011;17667;45.598;5.214;2023-03-23T15:21:21;8.40;;;7.63;;
15577;SDS011;17667;45.598;5.214;2023-03-23T15:24:21;8.90;;;8.03;;
15577;SDS011;17667;45.598;5.214;2023-03-23T15:27:23;8.30;;;7.50;;
15577;SDS011;17667;45.598;5.214;2023-03-23T15:30:13;9.97;;;9.00;;
15577;SDS011;17667;45.598;5.214;2023-03-23T15:33:02;8.73;;;7.83;;
15577;SDS011;17667;45.598;5.214;2023-03-23T15:35:55;8.37;;;7.57;;
15577;SDS011;17667;45.598;5.214;2023-03-23T15:38:44;9.20;;;8.20;;
15577;SDS011;17667;45.598;5.214;2023-03-23T15:41:32;9.13;;;8.20;;
15577;SDS011;17667;45.598;5.214;2023-03-23T15:44:20;9.43;;;8.30;;
15577;SDS011;17667;45.598;5.214;2023-03-23T15:47:15;9.40;;;8.50;;
15577;SDS011;17667;45.598;5.214;2023-03-23T15:50:04;12.10;;;10.90;;
15577;SDS011;17667;45.598;5.214;2023-03-23T15:52:57;11.53;;;10.33;;
15577;SDS011;17667;45.598;5.214;2023-03-23T15:55:46;10.70;;;9.63;;
15577;SDS011;17667;45.598;5.214;2023-03-23T15:58:32;9.40;;;8.43;;
15577;SDS011;17667;45.598;5.214;2023-03-23T16:01:21;8.17;;;7.37;;
15577;SDS011;17667;45.598;5.214;2023-03-23T16:04:12;8.87;;;7.97;;
15577;SDS011;17667;45.598;5.214;2023-03-23T16:07:01;8.20;;;7.40;;
15577;SDS011;17667;45.598;5.214;2023-03-23T16:09:50;7.57;;;6.87;;
15577;SDS011;17667;45.598;5.214;2023-03-23T16:12:39;8.97;;;7.50;;
15577;SDS011;17667;45.598;5.214;2023-03-23T16:15:26;7.50;;;6.80;;
15577;SDS011;17667;45.598;5.214;2023-03-23T16:18:16;7.57;;;6.87;;
15577;SDS011;17667;45.598;5.214;2023-03-23T16:21:06;7.53;;;6.67;;
15577;SDS011;17667;45.598;5.214;2023-03-23T16:23:54;7.70;;;6.90;;
15577;SDS011;17667;45.598;5.214;2023-03-23T16:26:42;8.60;;;7.80;;
15577;SDS011;17667;45.598;5.214;2023-03-23T16:29:31;8.30;;;7.50;;
15577;SDS011;17667;45.598;5.214;2023-03-23T16:32:25;8.87;;;7.50;;
15577;SDS011;17667;45.598;5.214;2023-03-23T16:35:13;8.80;;;8.00;;
15577;SDS011;17667;45.598;5.214;2023-03-23T16:38:01;7.20;;;6.50;;
15577;SDS011;17667;45.598;5.214;2023-03-23T16:40:48;9.13;;;8.23;;
15577;SDS011;17667;45.598;5.214;2023-03-23T16:43:36;9.77;;;8.77;;
15577;SDS011;17667;45.598;5.214;2023-03-23T16:46:25;8.00;;;7.00;;
15577;SDS011;17667;45.598;5.214;2023-03-23T16:49:14;8.53;;;7.70;;
15577;SDS011;17667;45.598;5.214;2023-03-23T16:52:01;8.43;;;7.63;;
15577;SDS011;17667;45.598;5.214;2023-03-23T16:54:49;7.50;;;6.80;;
15577;SDS011;17667;45.598;5.214;2023-03-23T16:57:37;6.60;;;6.00;;
15577;SDS011;17667;45.598;5.214;2023-03-23T17:00:26;6.13;;;5.53;;
15577;SDS011;17667;45.598;5.214;2023-03-23T17:03:15;7.50;;;6.80;;
15577;SDS011;17667;45.598;5.214;2023-03-23T17:06:03;6.50;;;5.90;;
15577;SDS011;17667;45.598;5.214;2023-03-23T17:08:52;5.73;;;5.23;;
15577;SDS011;17667;45.598;5.214;2023-03-23T17:11:39;5.73;;;5.23;;
15577;SDS011;17667;45.598;5.214;2023-03-23T17:14:27;6.67;;;6.07;;
15577;SDS011;17667;45.598;5.214;2023-03-23T17:17:15;7.97;;;7.07;;
15577;SDS011;17667;45.598;5.214;2023-03-23T17:20:05;8.40;;;7.53;;
15577;SDS011;17667;45.598;5.214;2023-03-23T17:22:54;7.40;;;6.70;;
15577;SDS011;17667;45.598;5.214;2023-03-23T17:25:45;9.37;;;7.57;;
15577;SDS011;17667;45.598;5.214;2023-03-23T17:28:33;8.93;;;7.77;;
15577;SDS011;17667;45.598;5.214;2023-03-23T17:31:21;8.50;;;7.60;;
15577;SDS011;17667;45.598;5.214;2023-03-23T17:34:08;7.80;;;7.10;;
15577;SDS011;17667;45.598;5.214;2023-03-23T17:36:58;10.10;;;9.03;;
15577;SDS011;17667;45.598;5.214;2023-03-23T17:39:45;9.80;;;8.80;;
15577;SDS011;17667;45.598;5.214;2023-03-23T17:42:32;8.50;;;7.60;;
15577;SDS011;17667;45.598;5.214;2023-03-23T17:45:20;9.60;;;8.60;;
15577;SDS011;17667;45.598;5.214;2023-03-23T17:48:08;8.70;;;7.80;;
15577;SDS011;17667;45.598;5.214;2023-03-23T17:50:56;8.07;;;6.80;;
15577;SDS011;17667;45.598;5.214;2023-03-23T17:53:45;7.50;;;6.80;;
15577;SDS011;17667;45.598;5.214;2023-03-23T17:56:33;10.57;;;9.20;;
15577;SDS011;17667;45.598;5.214;2023-03-23T17:59:21;11.00;;;10.00;;
15577;SDS011;17667;45.598;5.214;2023-03-23T18:02:09;10.57;;;9.50;;
15577;SDS011;17667;45.598;5.214;2023-03-23T18:04:58;11.50;;;9.67;;
15577;SDS011;17667;45.598;5.214;2023-03-23T18:07:46;11.53;;;10.33;;
15577;SDS011;17667;45.598;5.214;2023-03-23T18:10:36;10.40;;;9.30;;
15577;SDS011;17667;45.598;5.214;2023-03-23T18:13:25;19.27;;;15.90;;
15577;SDS011;17667;45.598;5.214;2023-03-23T18:16:14;16.20;;;12.83;;
15577;SDS011;17667;45.598;5.214;2023-03-23T18:19:02;14.50;;;12.23;;
15577;SDS011;17667;45.598;5.214;2023-03-23T18:21:51;13.20;;;11.20;;
15577;SDS011;17667;45.598;5.214;2023-03-23T18:24:39;14.17;;;12.00;;
15577;SDS011;17667;45.598;5.214;2023-03-23T18:27:28;13.80;;;11.13;;
15577;SDS011;17667;45.598;5.214;2023-03-23T18:30:15;14.97;;;11.80;;
15577;SDS011;17667;45.598;5.214;2023-03-23T18:33:03;16.03;;;12.97;;
15577;SDS011;17667;45.598;5.214;2023-03-23T18:35:54;14.70;;;12.40;;
15577;SDS011;17667;45.598;5.214;2023-03-23T18:38:43;14.90;;;12.27;;
15577;SDS011;17667;45.598;5.214;2023-03-23T18:41:32;14.37;;;11.73;;
15577;SDS011;17667;45.598;5.214;2023-03-23T18:44:21;15.40;;;12.83;;
15577;SDS011;17667;45.598;5.214;2023-03-23T18:47:08;12.87;;;11.13;;
15577;SDS011;17667;45.598;5.214;2023-03-23T18:49:56;12.63;;;11.30;;
15577;SDS011;17667;45.598;5.214;2023-03-23T18:52:44;12.03;;;10.03;;
15577;SDS011;17667;45.598;5.214;2023-03-23T18:55:31;10.93;;;9.83;;
15577;SDS011;17667;45.598;5.214;2023-03-23T18:58:19;10.77;;;9.77;;
15577;SDS011;17667;45.598;5.214;2023-03-23T19:01:12;10.20;;;8.83;;
15577;SDS011;17667;45.598;5.214;2023-03-23T19:04:01;11.30;;;10.07;;
15577;SDS011;17667;45.598;5.214;2023-03-23T19:06:49;11.00;;;9.90;;
15577;SDS011;17667;45.598;5.214;2023-03-23T19:09:37;10.00;;;9.00;;
15577;SDS011;17667;45.598;5.214;2023-03-23T19:12:26;9.83;;;8.83;;
15577;SDS011;17667;45.598;5.214;2023-03-23T19:15:14;9.00;;;8.10;;
15577;SDS011;17667;45.598;5.214;2023-03-23T19:18:03;8.63;;;7.80;;
15577;SDS011;17667;45.598;5.214;2023-03-23T19:20:51;8.00;;;7.20;;
15577;SDS011;17667;45.598;5.214;2023-03-23T19:23:56;7.63;;;6.93;;
15577;SDS011;17667;45.598;5.214;2023-03-23T19:26:44;8.13;;;7.40;;
15577;SDS011;17667;45.598;5.214;2023-03-23T19:29:33;8.60;;;7.80;;
15577;SDS011;17667;45.598;5.214;2023-03-23T19:32:21;10.23;;;9.33;;
15577;SDS011;17667;45.598;5.214;2023-03-23T19:35:10;11.97;;;10.87;;
15577;SDS011;17667;45.598;5.214;2023-03-23T19:37:58;11.77;;;10.67;;
15577;SDS011;17667;45.598;5.214;2023-03-23T19:40:52;11.30;;;10.10;;
15577;SDS011;17667;45.598;5.214;2023-03-23T19:43:42;13.53;;;12.23;;
15577;SDS011;17667;45.598;5.214;2023-03-23T19:46:30;13.53;;;12.10;;
15577;SDS011;17667;45.598;5.214;2023-03-23T19:49:18;13.77;;;12.37;;
15577;SDS011;17667;45.598;5.214;2023-03-23T19:52:07;13.43;;;11.37;;
15577;SDS011;17667;45.598;5.214;2023-03-23T19:54:57;13.90;;;12.50;;
15577;SDS011;17667;45.598;5.214;2023-03-23T19:57:44;18.03;;;15.80;;
15577;SDS011;17667;45.598;5.214;2023-03-23T20:00:32;19.53;;;17.43;;
15577;SDS011;17667;45.598;5.214;2023-03-23T20:03:21;21.40;;;17.37;;
15577;SDS011;17667;45.598;5.214;2023-03-23T20:06:10;21.47;;;17.87;;
15577;SDS011;17667;45.598;5.214;2023-03-23T20:09:01;26.20;;;19.97;;
15577;SDS011;17667;45.598;5.214;2023-03-23T20:11:51;27.23;;;20.93;;
15577;SDS011;17667;45.598;5.214;2023-03-23T20:14:38;23.93;;;19.10;;
15577;SDS011;17667;45.598;5.214;2023-03-23T20:17:28;21.77;;;18.10;;
15577;SDS011;17667;45.598;5.214;2023-03-23T20:20:16;20.23;;;16.90;;
15577;SDS011;17667;45.598;5.214;2023-03-23T20:23:05;17.23;;;14.73;;
15577;SDS011;17667;45.598;5.214;2023-03-23T20:25:57;15.07;;;12.63;;
15577;SDS011;17667;45.598;5.214;2023-03-23T20:28:45;14.33;;;12.27;;
15577;SDS011;17667;45.598;5.214;2023-03-23T20:31:35;16.93;;;11.40;;
15577;SDS011;17667;45.598;5.214;2023-03-23T20:34:24;16.47;;;12.60;;
15577;SDS011;17667;45.598;5.214;2023-03-23T20:37:15;15.03;;;12.23;;
15577;SDS011;17667;45.598;5.214;2023-03-23T20:40:06;14.20;;;12.30;;
15577;SDS011;17667;45.598;5.214;2023-03-23T20:42:58;12.77;;;11.47;;
15577;SDS011;17667;45.598;5.214;2023-03-23T20:45:46;11.47;;;10.27;;
15577;SDS011;17667;45.598;5.214;2023-03-23T20:48:34;11.30;;;10.20;;
15577;SDS011;17667;45.598;5.214;2023-03-23T20:51:23;12.30;;;11.00;;
15577;SDS011;17667;45.598;5.214;2023-03-23T20:54:11;12.33;;;10.40;;
15577;SDS011;17667;45.598;5.214;2023-03-23T20:57:00;10.10;;;9.10;;
15577;SDS011;17667;45.598;5.214;2023-03-23T20:59:49;11.60;;;10.40;;
15577;SDS011;17667;45.598;5.214;2023-03-23T21:02:38;12.70;;;11.40;;
15577;SDS011;17667;45.598;5.214;2023-03-23T21:05:26;11.23;;;10.23;;
15577;SDS011;17667;45.598;5.214;2023-03-23T21:08:14;11.33;;;10.07;;
15577;SDS011;17667;45.598;5.214;2023-03-23T21:11:03;9.77;;;8.87;;
15577;SDS011;17667;45.598;5.214;2023-03-23T21:13:53;8.73;;;7.83;;
15577;SDS011;17667;45.598;5.214;2023-03-23T21:16:43;8.57;;;7.13;;
15577;SDS011;17667;45.598;5.214;2023-03-23T21:19:31;8.60;;;7.77;;
15577;SDS011;17667;45.598;5.214;2023-03-23T21:22:19;11.23;;;10.07;;
15577;SDS011;17667;45.598;5.214;2023-03-23T21:25:07;10.53;;;9.53;;
15577;SDS011;17667;45.598;5.214;2023-03-23T21:27:56;8.97;;;8.17;;
15577;SDS011;17667;45.598;5.214;2023-03-23T21:30:43;8.67;;;7.87;;
15577;SDS011;17667;45.598;5.214;2023-03-23T21:33:34;8.43;;;7.50;;
15577;SDS011;17667;45.598;5.214;2023-03-23T21:36:21;8.70;;;7.90;;
15577;SDS011;17667;45.598;5.214;2023-03-23T21:39:11;8.77;;;7.97;;
15577;SDS011;17667;45.598;5.214;2023-03-23T21:41:59;9.43;;;8.33;;
15577;SDS011;17667;45.598;5.214;2023-03-23T21:44:49;9.73;;;8.60;;
15577;SDS011;17667;45.598;5.214;2023-03-23T21:47:38;9.23;;;8.23;;
15577;SDS011;17667;45.598;5.214;2023-03-23T21:50:28;7.90;;;7.10;;
15577;SDS011;17667;45.598;5.214;2023-03-23T21:53:15;8.13;;;7.33;;
15577;SDS011;17667;45.598;5.214;2023-03-23T21:56:05;9.77;;;8.80;;
15577;SDS011;17667;45.598;5.214;2023-03-23T21:58:54;13.33;;;11.70;;
15577;SDS011;17667;45.598;5.214;2023-03-23T22:01:42;11.83;;;10.63;;
15577;SDS011;17667;45.598;5.214;2023-03-23T22:04:30;13.87;;;12.33;;
15577;SDS011;17667;45.598;5.214;2023-03-23T22:07:19;14.87;;;12.67;;
15577;SDS011;17667;45.598;5.214;2023-03-23T22:10:09;16.23;;;13.87;;
15577;SDS011;17667;45.598;5.214;2023-03-23T22:12:56;13.80;;;12.43;;
15577;SDS011;17667;45.598;5.214;2023-03-23T22:15:45;13.17;;;11.87;;
15577;SDS011;17667;45.598;5.214;2023-03-23T22:18:32;13.50;;;12.10;;
15577;SDS011;17667;45.598;5.214;2023-03-23T22:21:21;12.07;;;10.77;;
15577;SDS011;17667;45.598;5.214;2023-03-23T22:24:12;11.27;;;10.17;;
15577;SDS011;17667;45.598;5.214;2023-03-23T22:27:00;14.33;;;12.80;;
15577;SDS011;17667;45.598;5.214;2023-03-23T22:29:48;16.57;;;14.80;;
15577;SDS011;17667;45.598;5.214;2023-03-23T22:32:36;13.87;;;12.43;;
15577;SDS011;17667;45.598;5.214;2023-03-23T22:35:24;14.20;;;12.27;;
15577;SDS011;17667;45.598;5.214;2023-03-23T22:38:12;14.77;;;12.47;;
15577;SDS011;17667;45.598;5.214;2023-03-23T22:41:02;15.33;;;13.77;;
15577;SDS011;17667;45.598;5.214;2023-03-23T22:43:52;14.50;;;13.00;;
15577;SDS011;17667;45.598;5.214;2023-03-23T22:46:40;13.57;;;12.07;;
15577;SDS011;17667;45.598;5.214;2023-03-23T22:49:28;14.13;;;12.73;;
15577;SDS011;17667;45.598;5.214;2023-03-23T22:52:16;12.90;;;11.30;;
15577;SDS011;17667;45.598;5.214;2023-03-23T22:55:04;12.17;;;10.97;;
15577;SDS011;17667;45.598;5.214;2023-03-23T22:57:54;12.90;;;11.60;;
15577;SDS011;17667;45.598;5.214;2023-03-23T23:00:42;13.87;;;12.50;;
15577;SDS011;17667;45.598;5.214;2023-03-23T23:03:32;12.83;;;11.53;;
15577;SDS011;17667;45.598;5.214;2023-03-23T23:06:21;11.43;;;10.33;;
15577;SDS011;17667;45.598;5.214;2023-03-23T23:09:10;12.40;;;10.90;;
15577;SDS011;17667;45.598;5.214;2023-03-23T23:11:57;10.87;;;9.77;;
15577;SDS011;17667;45.598;5.214;2023-03-23T23:14:47;10.80;;;9.67;;
15577;SDS011;17667;45.598;5.214;2023-03-23T23:17:34;10.90;;;9.80;;
15577;SDS011;17667;45.598;5.214;2023-03-23T23:20:24;10.47;;;9.47;;
15577;SDS011;17667;45.598;5.214;2023-03-23T23:23:11;12.63;;;11.33;;
15577;SDS011;17667;45.598;5.214;2023-03-23T23:25:59;14.07;;;12.67;;
15577;SDS011;17667;45.598;5.214;2023-03-23T23:28:47;13.87;;;12.43;;
15577;SDS011;17667;45.598;5.214;2023-03-23T23:31:38;12.87;;;11.57;;
15577;SDS011;17667;45.598;5.214;2023-03-23T23:34:25;11.00;;;9.90;;
15577;SDS011;17667;45.598;5.214;2023-03-23T23:37:13;10.20;;;9.20;;
15577;SDS011;17667;45.598;5.214;2023-03-23T23:40:01;11.43;;;9.70;;
15577;SDS011;17667;45.598;5.214;2023-03-23T23:42:51;11.60;;;10.40;;
15577;SDS011;17667;45.598;5.214;2023-03-23T23:45:39;12.37;;;10.80;;
15577;SDS011;17667;45.598;5.214;2023-03-23T23:48:28;12.40;;;11.10;;
15577;SDS011;17667;45.598;5.214;2023-03-23T23:51:16;12.33;;;11.23;;
15577;SDS011;17667;45.598;5.214;2023-03-23T23:54:03;12.77;;;11.47;;
15577;SDS011;17667;45.598;5.214;2023-03-23T23:56:51;12.60;;;11.30;;
15577;SDS011;17667;45.598;5.214;2023-03-23T23:59:39;12.57;;;11.37;;
